Time;durP1;ratioP1;P1;durP2;ratioP2;P2;SDS_P1;SDS_P2;PMS_P1;PMS_P2;Temp;Humidity;BMP_temperature;BMP_pressure;BME280_temperature;BME280_humidity;BME280_pressure;Samples;Min_cycle;Max_cycle;Signal;HPM_P1;HPM_P2
2021/06/30 00:01:53;;;;;;;14.93;11.90;;;17.30;99.90;;;;;;5053275;28;20426;-72
2021/06/30 00:04:26;;;;;;;12.87;11.53;;;17.30;99.90;;;;;;5052336;28;20437;-72
2021/06/30 00:06:59;;;;;;;11.60;10.50;;;17.30;99.90;;;;;;5053141;28;20428;-72
2021/06/30 00:09:33;;;;;;;12.63;11.43;;;17.30;99.90;;;;;;5052508;28;20483;-72
2021/06/30 00:12:08;;;;;;;12.77;11.47;;;17.30;99.90;;;;;;5053653;28;20857;-72
2021/06/30 00:14:41;;;;;;;12.97;11.63;;;17.30;99.90;;;;;;5053544;28;20452;-72
2021/06/30 00:17:15;;;;;;;13.17;11.83;;;17.30;99.90;;;;;;5053994;28;20898;-72
2021/06/30 00:19:49;;;;;;;11.77;10.67;;;17.30;99.90;;;;;;5051957;28;20471;-72
2021/06/30 00:22:22;;;;;;;15.13;13.73;;;17.30;99.90;;;;;;5053332;28;20875;-72
2021/06/30 00:24:55;;;;;;;13.00;11.83;;;17.40;99.90;;;;;;5051173;28;20184;-72
2021/06/30 00:27:29;;;;;;;12.70;11.50;;;17.40;99.90;;;;;;5053749;28;20923;-72
2021/06/30 00:30:03;;;;;;;13.90;12.53;;;17.30;99.90;;;;;;5053939;28;20514;-72
2021/06/30 00:32:37;;;;;;;14.10;12.60;;;17.30;99.90;;;;;;5052753;28;20873;-72
2021/06/30 00:35:11;;;;;;;13.37;12.17;;;17.30;99.90;;;;;;5057475;28;20464;-72
2021/06/30 00:37:45;;;;;;;13.40;12.10;;;17.30;99.90;;;;;;5057533;28;20489;-72
2021/06/30 00:40:20;;;;;;;15.00;13.57;;;17.30;99.90;;;;;;5057509;28;20529;-72
2021/06/30 00:42:54;;;;;;;13.80;12.50;;;17.30;99.90;;;;;;5056948;28;20457;-72
2021/06/30 00:45:28;;;;;;;13.07;11.87;;;17.30;99.90;;;;;;5056941;28;20427;-72
2021/06/30 00:47:56;;;;;;;12.90;11.50;;;17.30;99.90;;;;;;5057519;28;20440;-72
2021/06/30 00:50:29;;;;;;;12.90;11.70;;;17.30;99.90;;;;;;5056335;28;20881;-72
2021/06/30 00:52:57;;;;;;;12.97;11.70;;;17.30;99.90;;;;;;5056428;28;20469;-72
2021/06/30 00:55:30;;;;;;;12.77;11.57;;;17.30;99.90;;;;;;5057003;28;20510;-72
2021/06/30 00:58:04;;;;;;;13.60;12.30;;;17.30;99.90;;;;;;5055100;28;20480;-72
2021/06/30 01:00:37;;;;;;;15.53;14.03;;;17.30;99.90;;;;;;5056923;28;20975;-72
2021/06/30 01:03:11;;;;;;;14.93;13.23;;;17.20;99.90;;;;;;5056499;28;20427;-72
2021/06/30 01:05:44;;;;;;;17.10;14.60;;;17.20;99.90;;;;;;5054925;28;20492;-72
2021/06/30 01:08:17;;;;;;;18.40;15.67;;;17.20;99.90;;;;;;5055292;28;20427;-72
2021/06/30 01:10:50;;;;;;;19.20;14.30;;;17.20;99.90;;;;;;5054820;28;20499;-72
2021/06/30 01:13:24;;;;;;;18.80;16.43;;;17.30;99.90;;;;;;5056863;28;20496;-72
2021/06/30 01:15:57;;;;;;;17.47;15.63;;;17.30;99.90;;;;;;5055081;28;20449;-72
2021/06/30 01:18:33;;;;;;;25.10;17.37;;;17.20;99.90;;;;;;5056429;28;20597;-72
2021/06/30 01:21:08;;;;;;;20.33;17.80;;;17.30;99.90;;;;;;5056915;28;20416;-72
2021/06/30 01:23:43;;;;;;;32.70;19.10;;;17.30;99.90;;;;;;5055859;28;20432;-72
2021/06/30 01:26:17;;;;;;;33.77;22.00;;;17.30;99.90;;;;;;5056080;28;20531;-72
2021/06/30 01:28:50;;;;;;;29.47;19.80;;;17.40;99.90;;;;;;5041657;28;20550;-72
2021/06/30 01:31:24;;;;;;;24.73;20.03;;;17.40;99.90;;;;;;5055110;28;20479;-72
2021/06/30 01:33:57;;;;;;;30.43;19.70;;;17.40;99.90;;;;;;5056444;28;20460;-72
2021/06/30 01:36:30;;;;;;;29.85;22.42;;;17.40;99.90;;;;;;5056400;28;20514;-72
2021/06/30 01:39:05;;;;;;;30.50;21.23;;;17.40;99.90;;;;;;5055059;28;20224;-72
2021/06/30 01:41:38;;;;;;;34.87;21.33;;;17.40;99.90;;;;;;5055280;28;20451;-72
2021/06/30 01:44:11;;;;;;;34.80;23.33;;;17.40;99.90;;;;;;5055613;28;20551;-72
2021/06/30 01:46:45;;;;;;;41.80;23.97;;;17.40;99.90;;;;;;5054075;28;20471;-72
2021/06/30 01:49:18;;;;;;;33.30;23.47;;;17.40;99.90;;;;;;5053843;28;20473;-72
2021/06/30 01:51:51;;;;;;;43.10;24.20;;;17.40;99.90;;;;;;5054770;28;20445;-72
2021/06/30 01:54:25;;;;;;;38.73;26.60;;;17.50;99.90;;;;;;5055834;28;20514;-72
2021/06/30 01:56:59;;;;;;;41.67;25.40;;;17.40;99.90;;;;;;5055502;28;20448;-72
2021/06/30 01:59:32;;;;;;;33.03;24.17;;;17.50;99.90;;;;;;5054843;28;20477;-72
2021/06/30 02:02:05;;;;;;;35.50;25.27;;;17.50;99.90;;;;;;5056568;28;20441;-72
2021/06/30 02:04:39;;;;;;;35.33;25.47;;;17.50;99.90;;;;;;5055381;28;20456;-72
2021/06/30 02:07:12;;;;;;;32.60;24.03;;;17.50;99.90;;;;;;5055439;28;20589;-72
2021/06/30 02:09:46;;;;;;;32.47;23.70;;;17.60;99.90;;;;;;5054852;28;20469;-72
2021/06/30 02:12:19;;;;;;;34.60;25.77;;;17.60;99.90;;;;;;5055782;28;20497;-72
2021/06/30 02:14:52;;;;;;;31.80;24.30;;;17.60;99.90;;;;;;5055164;28;20500;-72
2021/06/30 02:17:32;;;;;;;37.70;25.43;;;17.60;99.90;;;;;;5054974;28;20484;-72
2021/06/30 02:20:07;;;;;;;32.80;25.27;;;17.70;99.90;;;;;;5054499;28;20510;-72
2021/06/30 02:22:41;;;;;;;33.27;24.90;;;17.60;99.90;;;;;;5055020;28;20486;-72
2021/06/30 02:25:18;;;;;;;36.60;24.97;;;17.70;99.90;;;;;;5055469;28;20835;-73
2021/06/30 02:27:52;;;;;;;35.50;26.33;;;17.70;99.90;;;;;;5053514;28;20471;-73
2021/06/30 02:30:27;;;;;;;36.80;26.30;;;17.70;99.90;;;;;;5054142;28;20439;-73
2021/06/30 02:32:56;;;;;;;38.60;24.83;;;17.80;99.90;;;;;;5054837;28;20618;-72
2021/06/30 02:35:30;;;;;;;36.83;27.60;;;17.80;99.90;;;;;;5053512;28;20452;-73
2021/06/30 02:38:04;;;;;;;40.80;26.27;;;17.80;99.90;;;;;;5054921;28;20483;-72
2021/06/30 02:40:38;;;;;;;41.17;27.98;;;17.80;99.90;;;;;;5052798;28;20442;-72
2021/06/30 02:43:11;;;;;;;33.77;23.47;;;17.80;99.90;;;;;;5054345;28;20204;-72
2021/06/30 02:48:27;;;;;;;36.40;27.07;;;17.80;99.90;;;;;;5071863;28;20458;-73
2021/06/30 02:50:55;;;;;;;41.00;27.70;;;17.90;99.90;;;;;;5058022;28;20512;-73
2021/06/30 02:53:28;;;;;;;35.80;26.40;;;17.90;99.90;;;;;;5058166;28;20531;-73
2021/06/30 02:56:02;;;;;;;38.30;26.80;;;17.90;99.90;;;;;;5054434;28;20817;-73
2021/06/30 02:58:31;;;;;;;33.53;24.23;;;17.90;99.90;;;;;;5053338;28;20469;-72
2021/06/30 03:00:59;;;;;;;38.10;26.10;;;17.90;99.90;;;;;;5052936;28;20476;-73
2021/06/30 03:03:32;;;;;;;46.03;28.93;;;17.90;99.90;;;;;;5070730;28;20803;-73
2021/06/30 03:06:05;;;;;;;39.00;27.27;;;17.90;99.90;;;;;;5071300;28;20441;-72
2021/06/30 03:08:38;;;;;;;40.70;27.37;;;17.90;99.90;;;;;;5073091;28;20454;-73
2021/06/30 03:11:15;;;;;;;50.13;28.00;;;17.90;99.90;;;;;;5053538;28;20462;-73
2021/06/30 03:13:48;;;;;;;46.73;25.80;;;17.90;99.90;;;;;;5053911;28;20471;-73
2021/06/30 03:16:21;;;;;;;44.90;26.87;;;17.90;99.90;;;;;;5052730;28;20810;-73
2021/06/30 03:18:54;;;;;;;37.23;25.13;;;17.90;99.90;;;;;;5073056;28;20498;-73
2021/06/30 03:21:22;;;;;;;44.17;25.47;;;17.90;99.90;;;;;;5072576;28;20454;-73
2021/06/30 03:23:50;;;;;;;37.97;24.90;;;17.90;99.90;;;;;;5073740;28;20451;-73
2021/06/30 03:26:20;;;;;;;47.80;26.27;;;17.90;99.90;;;;;;5060667;28;20810;-72
2021/06/30 03:28:53;;;;;;;44.43;27.87;;;17.90;99.90;;;;;;5063850;28;20870;-73
2021/06/30 03:31:21;;;;;;;42.60;27.53;;;17.90;99.90;;;;;;5072598;28;20496;-73
2021/06/30 03:33:54;;;;;;;42.30;26.70;;;17.90;99.90;;;;;;5054465;28;20838;-73
2021/06/30 03:36:24;;;;;;;39.57;24.13;;;17.90;99.90;;;;;;5064770;28;20470;-73
2021/06/30 03:38:52;;;;;;;39.37;24.93;;;17.90;99.90;;;;;;5072136;28;20584;-73
2021/06/30 03:41:21;;;;;;;37.70;23.80;;;17.90;99.90;;;;;;5067919;28;20810;-72
2021/06/30 03:43:51;;;;;;;39.90;24.93;;;17.90;99.90;;;;;;5060766;28;20459;-73
2021/06/30 03:46:25;;;;;;;40.72;25.38;;;17.90;99.90;;;;;;5072392;28;20496;-73
2021/06/30 03:48:57;;;;;;;33.67;23.63;;;17.90;99.90;;;;;;5065249;28;20674;-73
2021/06/30 03:51:31;;;;;;;39.90;23.37;;;17.90;99.90;;;;;;5053634;28;20469;-73
2021/06/30 03:54:05;;;;;;;34.37;23.00;;;17.90;99.90;;;;;;5053446;28;20461;-73
2021/06/30 03:56:35;;;;;;;40.30;25.87;;;17.90;99.90;;;;;;5054089;28;20471;-73
2021/06/30 03:59:03;;;;;;;38.43;24.80;;;17.90;99.90;;;;;;5059457;28;21010;-73
2021/06/30 04:01:36;;;;;;;33.93;23.50;;;17.90;99.90;;;;;;5074022;28;20425;-73
2021/06/30 04:04:06;;;;;;;41.50;25.87;;;17.90;99.90;;;;;;5067223;28;20497;-72
2021/06/30 04:06:34;;;;;;;44.40;24.00;;;17.90;99.90;;;;;;5051872;28;20436;-73
2021/06/30 04:09:03;;;;;;;37.43;25.33;;;17.90;99.90;;;;;;5050936;28;20472;-73
2021/06/30 04:11:31;;;;;;;37.90;23.50;;;17.90;99.90;;;;;;5051585;28;20452;-72
2021/06/30 04:14:05;;;;;;;30.90;22.20;;;17.90;99.90;;;;;;5068417;28;20466;-74
2021/06/30 04:16:33;;;;;;;34.73;24.40;;;17.90;99.90;;;;;;5071871;28;20443;-75
2021/06/30 04:19:01;;;;;;;28.17;21.13;;;17.90;99.90;;;;;;5073225;28;20517;-75
2021/06/30 04:21:29;;;;;;;34.53;23.20;;;17.90;99.90;;;;;;5064180;28;20460;-75
2021/06/30 04:24:02;;;;;;;35.00;23.37;;;17.90;99.90;;;;;;5059178;28;20511;-75
2021/06/30 04:26:35;;;;;;;38.70;24.20;;;17.90;99.90;;;;;;5060573;28;20486;-73
2021/06/30 04:29:07;;;;;;;37.50;23.33;;;17.90;99.90;;;;;;5055732;28;20470;-73
2021/06/30 04:31:36;;;;;;;32.33;24.13;;;17.90;99.90;;;;;;5071735;28;20944;-73
2021/06/30 04:34:09;;;;;;;36.33;24.07;;;17.90;99.90;;;;;;5071706;28;20902;-73
2021/06/30 04:36:42;;;;;;;34.37;24.27;;;17.90;99.90;;;;;;5073065;28;20476;-73
2021/06/30 04:39:11;;;;;;;33.07;22.60;;;17.90;99.90;;;;;;5069860;28;20514;-72
2021/06/30 04:41:39;;;;;;;37.40;23.57;;;17.90;99.90;;;;;;5054058;28;20948;-72
2021/06/30 04:44:12;;;;;;;34.07;21.67;;;17.90;99.90;;;;;;5065735;28;20474;-73
2021/06/30 04:46:40;;;;;;;36.30;24.97;;;17.90;99.90;;;;;;5071522;28;20454;-74
2021/06/30 04:49:08;;;;;;;32.30;22.87;;;17.90;99.90;;;;;;5063748;28;20603;-73
2021/06/30 04:51:44;;;;;;;39.43;26.70;;;17.80;99.90;;;;;;5051635;28;20440;-73
2021/06/30 04:54:18;;;;;;;37.03;24.30;;;17.80;99.90;;;;;;5053741;28;20813;-72
2021/06/30 04:56:47;;;;;;;36.30;23.57;;;17.80;99.90;;;;;;5052980;28;20439;-72
2021/06/30 04:59:23;;;;;;;36.87;24.90;;;17.80;99.90;;;;;;5060012;28;20596;-74
2021/06/30 05:01:56;;;;;;;36.43;23.80;;;17.80;99.90;;;;;;5054857;28;20863;-75
2021/06/30 05:04:37;;;;;;;33.57;23.10;;;17.80;99.90;;;;;;5063112;28;20450;-71
2021/06/30 05:07:05;;;;;;;31.77;24.80;;;17.80;99.90;;;;;;5051055;28;20776;-71
2021/06/30 05:09:38;;;;;;;32.60;22.20;;;17.80;99.90;;;;;;5051355;28;20524;-72
2021/06/30 05:12:11;;;;;;;34.33;24.37;;;17.80;99.90;;;;;;5050877;28;20503;-72
2021/06/30 05:14:46;;;;;;;34.60;22.97;;;17.80;99.90;;;;;;5051451;28;20461;-72
2021/06/30 05:17:19;;;;;;;43.20;22.97;;;17.80;99.90;;;;;;5052587;28;20416;-72
2021/06/30 05:19:52;;;;;;;34.63;22.87;;;17.80;99.90;;;;;;5053300;28;20475;-72
2021/06/30 05:26:27;;;;;;;35.23;24.37;;;17.70;99.90;;;;;;5054769;28;20859;-74
2021/06/30 05:29:15;;;;;;;36.80;21.93;;;17.70;99.90;;;;;;5053120;28;20470;-74
2021/06/30 05:31:45;;;;;;;36.90;23.60;;;17.70;99.90;;;;;;5054870;28;20488;-74
2021/06/30 05:34:18;;;;;;;34.30;22.77;;;17.70;99.90;;;;;;5055708;28;20440;-74
2021/06/30 05:37:19;;;;;;;32.37;21.27;;;17.60;99.90;;;;;;5054722;28;20957;-74
2021/06/30 05:43:30;;;;;;;36.70;25.13;;;17.60;99.90;;;;;;5053285;28;20451;-74
2021/06/30 05:46:03;;;;;;;39.37;22.90;;;17.70;99.90;;;;;;5055991;28;20193;-74
2021/06/30 05:48:38;;;;;;;38.73;24.00;;;17.70;99.90;;;;;;5054385;28;20479;-74
2021/06/30 05:51:11;;;;;;;39.67;22.67;;;17.70;99.90;;;;;;5055856;28;20420;-74
2021/06/30 05:53:44;;;;;;;37.13;24.50;;;17.70;99.90;;;;;;5055122;28;20444;-74
2021/06/30 05:56:13;;;;;;;35.07;22.03;;;17.70;99.90;;;;;;5055376;28;20706;-74
2021/06/30 05:58:46;;;;;;;36.53;22.63;;;17.70;99.90;;;;;;5055330;28;20858;-74
2021/06/30 06:01:19;;;;;;;29.70;22.50;;;17.70;99.90;;;;;;5055735;28;20430;-74
2021/06/30 06:03:54;;;;;;;34.40;24.93;;;17.60;99.90;;;;;;5054157;28;20445;-74
2021/06/30 06:06:30;;;;;;;35.50;23.67;;;17.60;99.90;;;;;;5054424;28;20430;-74
2021/06/30 06:09:03;;;;;;;29.33;22.40;;;17.60;99.90;;;;;;5055503;28;20463;-74
2021/06/30 06:11:36;;;;;;;29.40;21.67;;;17.50;99.90;;;;;;5055523;28;20434;-74
2021/06/30 06:14:09;;;;;;;34.70;24.43;;;17.50;99.90;;;;;;5055448;28;20428;-74
2021/06/30 06:16:42;;;;;;;42.40;24.27;;;17.50;99.90;;;;;;5055103;28;20983;-74
2021/06/30 06:19:11;;;;;;;37.73;25.07;;;17.50;99.90;;;;;;5055000;28;20985;-74
2021/06/30 06:21:39;;;;;;;35.13;24.73;;;17.50;99.90;;;;;;5053725;28;20456;-74
2021/06/30 06:24:08;;;;;;;30.37;23.80;;;17.50;99.90;;;;;;5053624;28;20446;-74
2021/06/30 06:26:41;;;;;;;25.70;20.73;;;17.50;99.90;;;;;;5055243;28;20787;-74
2021/06/30 06:29:14;;;;;;;33.40;21.63;;;17.50;99.90;;;;;;5053780;28;20473;-74
2021/06/30 06:31:49;;;;;;;36.23;24.33;;;17.50;99.90;;;;;;5052834;28;20434;-74
2021/06/30 06:34:20;;;;;;;33.87;22.67;;;17.50;99.90;;;;;;5053551;28;20455;-74
2021/06/30 06:36:49;;;;;;;27.40;21.50;;;17.50;99.90;;;;;;5054684;28;20530;-74
2021/06/30 06:39:22;;;;;;;29.47;22.33;;;17.50;99.90;;;;;;5053412;28;20473;-74
2021/06/30 06:41:56;;;;;;;32.97;23.37;;;17.50;99.90;;;;;;5054941;28;20430;-74
2021/06/30 06:44:29;;;;;;;34.00;24.77;;;17.40;99.90;;;;;;5054900;28;20458;-74
2021/06/30 06:47:02;;;;;;;40.53;26.88;;;17.50;99.90;;;;;;5052671;28;20778;-73
2021/06/30 06:49:37;;;;;;;35.60;24.10;;;17.50;99.90;;;;;;5054590;28;20622;-74
2021/06/30 06:52:06;;;;;;;31.33;22.83;;;17.40;99.90;;;;;;5054431;28;20944;-74
2021/06/30 06:54:41;;;;;;;31.97;23.57;;;17.50;99.90;;;;;;5053023;28;20798;-74
2021/06/30 06:57:14;;;;;;;36.55;25.63;;;17.40;99.90;;;;;;5054248;28;21029;-74
2021/06/30 06:59:47;;;;;;;32.03;22.37;;;17.40;99.90;;;;;;5053108;28;20725;-74
2021/06/30 07:02:20;;;;;;;27.30;22.53;;;17.50;99.90;;;;;;5052802;28;20437;-74
2021/06/30 07:04:51;;;;;;;33.30;23.03;;;17.40;99.90;;;;;;5054140;28;20441;-74
2021/06/30 07:07:24;;;;;;;36.87;23.73;;;17.40;99.90;;;;;;5052708;28;20437;-74
2021/06/30 07:09:57;;;;;;;31.03;23.23;;;17.40;99.90;;;;;;5053872;28;20807;-73
2021/06/30 07:12:30;;;;;;;36.63;24.63;;;17.40;99.90;;;;;;5052751;28;20446;-74
2021/06/30 07:15:03;;;;;;;33.60;24.37;;;17.40;99.90;;;;;;5054570;28;20495;-74
2021/06/30 07:17:38;;;;;;;28.40;22.30;;;17.40;99.90;;;;;;5052661;28;20944;-74
2021/06/30 07:20:13;;;;;;;30.23;23.80;;;17.40;99.90;;;;;;5053751;28;20516;-74
2021/06/30 07:22:46;;;;;;;29.17;22.00;;;17.40;99.90;;;;;;5054018;28;20516;-74
2021/06/30 07:25:20;;;;;;;30.90;24.00;;;17.40;99.90;;;;;;5053926;28;20441;-73
2021/06/30 07:27:53;;;;;;;27.57;23.90;;;17.40;99.90;;;;;;5053928;28;20896;-73
2021/06/30 07:30:21;;;;;;;25.57;20.40;;;17.40;99.90;;;;;;5053672;28;20481;-73
2021/06/30 07:32:49;;;;;;;24.53;20.17;;;17.40;99.90;;;;;;5053898;28;20493;-74
2021/06/30 07:35:23;;;;;;;25.60;18.97;;;17.50;99.90;;;;;;5053732;28;20424;-73
2021/06/30 07:37:56;;;;;;;27.40;21.30;;;17.50;99.90;;;;;;5053777;28;20433;-74
2021/06/30 07:40:30;;;;;;;29.17;21.10;;;17.50;99.90;;;;;;5052055;28;21063;-72
2021/06/30 07:43:03;;;;;;;23.90;20.70;;;17.50;99.90;;;;;;5053567;28;20426;-72
2021/06/30 07:45:31;;;;;;;19.87;15.13;;;17.50;99.90;;;;;;5052527;28;20415;-74
2021/06/30 07:48:00;;;;;;;23.40;18.77;;;17.50;99.90;;;;;;5052539;28;20453;-74
2021/06/30 07:50:29;;;;;;;22.90;18.10;;;17.50;99.90;;;;;;5052473;28;20560;-73
2021/06/30 07:52:58;;;;;;;27.67;20.13;;;17.50;99.90;;;;;;5051878;28;20791;-74
2021/06/30 07:55:26;;;;;;;29.23;20.53;;;17.50;99.90;;;;;;5053243;28;20442;-74
2021/06/30 07:57:54;;;;;;;25.87;19.27;;;17.60;99.90;;;;;;5052982;28;20582;-74
2021/06/30 08:00:22;;;;;;;25.13;19.00;;;17.60;99.90;;;;;;5053155;28;20461;-73
2021/06/30 08:02:51;;;;;;;24.07;18.03;;;17.70;99.90;;;;;;5053181;28;20532;-73
2021/06/30 08:05:19;;;;;;;20.73;16.27;;;17.70;99.90;;;;;;5051981;28;20980;-73
2021/06/30 08:07:48;;;;;;;22.53;15.80;;;17.70;99.90;;;;;;5051764;28;20839;-74
2021/06/30 08:10:16;;;;;;;19.67;17.57;;;17.70;99.90;;;;;;5053219;28;20462;-74
2021/06/30 08:12:46;;;;;;;18.87;16.10;;;17.70;99.90;;;;;;5051911;28;20457;-73
2021/06/30 08:15:14;;;;;;;23.17;17.73;;;17.80;99.90;;;;;;5051923;28;20460;-73
2021/06/30 08:17:45;;;;;;;20.70;18.00;;;17.80;99.90;;;;;;5053211;28;20478;-72
2021/06/30 08:20:14;;;;;;;25.67;20.17;;;17.80;99.90;;;;;;5053328;28;20454;-72
2021/06/30 08:22:43;;;;;;;36.40;26.77;;;17.80;99.90;;;;;;5051947;28;20959;-72
2021/06/30 08:25:12;;;;;;;38.20;27.07;;;17.80;99.90;;;;;;5053392;28;20439;-72
2021/06/30 08:27:40;;;;;;;43.07;28.93;;;17.90;99.90;;;;;;5053292;28;20528;-72
2021/06/30 08:30:12;;;;;;;38.83;28.90;;;17.90;99.90;;;;;;5053059;28;20459;-73
2021/06/30 08:32:43;;;;;;;33.17;23.30;;;18.00;99.90;;;;;;5053568;28;20846;-73
2021/06/30 08:35:13;;;;;;;35.80;23.47;;;18.00;99.90;;;;;;5053015;28;20450;-73
2021/06/30 08:37:46;;;;;;;36.80;24.73;;;18.10;99.90;;;;;;5051688;28;20451;-74
2021/06/30 08:40:17;;;;;;;36.90;26.03;;;18.10;99.90;;;;;;5052925;28;20553;-73
2021/06/30 08:42:45;;;;;;;34.90;25.37;;;18.10;99.90;;;;;;5053025;28;20425;-73
2021/06/30 08:45:14;;;;;;;35.80;26.23;;;18.10;99.90;;;;;;5051654;28;20540;-74
2021/06/30 08:47:43;;;;;;;54.47;32.57;;;18.10;99.90;;;;;;5051435;28;20492;-74
2021/06/30 08:50:13;;;;;;;56.10;32.30;;;18.20;99.90;;;;;;5051492;28;20557;-73
2021/06/30 08:52:42;;;;;;;63.27;34.80;;;18.20;99.90;;;;;;5053164;28;20843;-74
2021/06/30 08:55:19;;;;;;;120.57;52.97;;;18.20;99.90;;;;;;5053016;28;20934;-74
2021/06/30 08:57:49;;;;;;;91.20;45.43;;;18.20;99.90;;;;;;5055064;28;20206;-74
2021/06/30 11:03:28;;;;;;;14.87;13.30;;;18.90;99.90;;;;;;5071546;28;20467;-72
2021/06/30 11:05:57;;;;;;;15.73;13.75;;;18.90;99.90;;;;;;5073656;28;20881;-72
2021/06/30 11:08:45;;;;;;;15.67;13.17;;;19.00;99.90;;;;;;5074056;28;20237;-72
2021/06/30 11:11:15;;;;;;;15.90;12.93;;;19.00;99.90;;;;;;5037206;28;20441;-72
2021/06/30 11:13:54;;;;;;;14.93;13.20;;;18.90;99.90;;;;;;5054035;28;20448;-72
2021/06/30 11:16:48;;;;;;;14.37;12.87;;;18.90;99.90;;;;;;5053518;28;20835;-72
2021/06/30 11:19:47;;;;;;;13.30;12.00;;;18.90;99.90;;;;;;5054120;28;20480;-72
2021/06/30 11:22:32;;;;;;;14.50;13.03;;;19.00;99.90;;;;;;5053851;28;20515;-72
2021/06/30 11:25:02;;;;;;;18.07;14.83;;;19.00;99.90;;;;;;5035987;28;20469;-72
2021/06/30 11:27:45;;;;;;;16.00;14.30;;;19.00;99.90;;;;;;5053825;28;20423;-72
2021/06/30 11:30:37;;;;;;;16.13;13.73;;;19.00;99.90;;;;;;5054765;28;20487;-72
2021/06/30 11:33:19;;;;;;;15.33;13.60;;;19.00;99.90;;;;;;5031229;28;20533;-72
2021/06/30 11:35:49;;;;;;;15.97;14.20;;;19.00;99.90;;;;;;5035818;28;20468;-72
2021/06/30 11:38:22;;;;;;;19.23;14.30;;;19.00;99.90;;;;;;5036153;28;20554;-72
2021/06/30 11:43:41;;;;;;;14.90;13.30;;;19.10;99.90;;;;;;5054217;28;20436;-72
2021/06/30 11:46:09;;;;;;;15.20;13.63;;;19.10;99.90;;;;;;5053399;28;20839;-72
2021/06/30 11:48:38;;;;;;;14.47;13.07;;;19.10;99.90;;;;;;5053167;28;20441;-72
2021/06/30 11:51:10;;;;;;;15.07;13.13;;;19.10;99.90;;;;;;5035375;28;20586;-72
2021/06/30 11:53:43;;;;;;;15.87;13.07;;;19.10;99.90;;;;;;5035516;28;20464;-72
2021/06/30 11:56:13;;;;;;;18.33;15.17;;;19.10;99.90;;;;;;5053484;28;20425;-72
2021/06/30 11:58:44;;;;;;;15.73;14.13;;;19.10;99.90;;;;;;5053523;28;20443;-72
2021/06/30 12:01:22;;;;;;;16.10;14.40;;;19.20;99.90;;;;;;5053340;28;20289;-72
2021/06/30 12:04:06;;;;;;;16.47;14.33;;;19.20;99.90;;;;;;5053818;28;20503;-72
2021/06/30 12:06:36;;;;;;;15.67;14.07;;;19.20;99.90;;;;;;5053142;28;20449;-72
2021/06/30 12:09:06;;;;;;;15.67;12.80;;;19.10;99.90;;;;;;5053867;28;20866;-72
2021/06/30 12:11:35;;;;;;;14.27;12.77;;;19.10;99.90;;;;;;5053082;28;20479;-72
2021/06/30 12:14:07;;;;;;;15.53;13.60;;;19.10;99.90;;;;;;5053259;28;20440;-72
2021/06/30 12:16:44;;;;;;;14.37;12.40;;;19.10;99.90;;;;;;5053612;28;20436;-72
2021/06/30 12:19:15;;;;;;;16.10;14.40;;;19.20;99.90;;;;;;5053222;28;20455;-72
2021/06/30 12:21:46;;;;;;;14.37;12.83;;;19.20;99.90;;;;;;5053351;28;20483;-72
2021/06/30 12:24:18;;;;;;;15.53;13.93;;;19.30;99.90;;;;;;5053086;28;20508;-72
2021/06/30 12:26:57;;;;;;;16.33;14.60;;;19.30;99.90;;;;;;5053208;28;20440;-72
2021/06/30 12:29:25;;;;;;;14.33;12.83;;;19.30;99.90;;;;;;5053691;28;20460;-72
2021/06/30 12:31:53;;;;;;;16.10;14.40;;;19.30;99.90;;;;;;5057740;28;20772;-72
2021/06/30 12:34:23;;;;;;;16.17;14.23;;;19.30;99.90;;;;;;5057450;28;20499;-72
2021/06/30 12:36:52;;;;;;;16.83;12.63;;;19.30;99.90;;;;;;5057151;28;20442;-72
2021/06/30 12:39:22;;;;;;;16.20;14.60;;;19.30;99.90;;;;;;5056974;28;20491;-72
2021/06/30 12:41:55;;;;;;;18.17;13.97;;;19.40;99.90;;;;;;5057206;28;20477;-72
2021/06/30 12:44:24;;;;;;;19.90;14.73;;;19.40;99.90;;;;;;5057380;28;20517;-72
2021/06/30 12:47:06;;;;;;;15.40;13.80;;;19.40;99.90;;;;;;5057636;28;20418;-72
2021/06/30 12:49:34;;;;;;;15.37;12.60;;;19.50;99.90;;;;;;5056872;28;20464;-72
2021/06/30 12:52:04;;;;;;;17.10;14.10;;;19.50;99.90;;;;;;5056932;28;20433;-72
2021/06/30 12:54:33;;;;;;;15.27;12.43;;;19.50;99.90;;;;;;5056966;28;20513;-72
2021/06/30 12:57:06;;;;;;;15.90;14.20;;;19.50;99.90;;;;;;5057302;28;20429;-72
2021/06/30 12:59:34;;;;;;;17.10;14.67;;;19.60;99.90;;;;;;5056808;28;20901;-72
2021/06/30 13:02:17;;;;;;;17.20;14.37;;;19.60;99.90;;;;;;5038617;28;20525;-72
2021/06/30 13:04:46;;;;;;;16.33;14.63;;;19.60;99.90;;;;;;5056100;28;20493;-72
2021/06/30 13:07:15;;;;;;;16.93;14.13;;;19.70;99.90;;;;;;5056642;28;20202;-72
2021/06/30 13:09:43;;;;;;;16.83;14.30;;;19.80;99.90;;;;;;5056858;28;20461;-72
2021/06/30 13:12:21;;;;;;;14.93;13.27;;;19.80;99.90;;;;;;5056577;28;20780;-72
2021/06/30 13:14:50;;;;;;;16.33;13.47;;;19.80;99.90;;;;;;5056580;28;20422;-72
2021/06/30 13:17:24;;;;;;;14.70;13.13;;;19.80;99.90;;;;;;5038843;28;20470;-72
2021/06/30 13:19:52;;;;;;;14.40;12.90;;;19.80;99.90;;;;;;5038249;28;20559;-71
2021/06/30 13:22:26;;;;;;;15.70;14.00;;;19.80;99.90;;;;;;5038216;28;20453;-71
2021/06/30 13:25:00;;;;;;;17.03;14.67;;;19.80;99.90;;;;;;5038349;28;20471;-72
2021/06/30 13:27:40;;;;;;;17.53;13.33;;;19.80;99.90;;;;;;5056474;28;20422;-72
2021/06/30 13:35:47;;;;;;;15.80;14.13;;;19.80;99.90;;;;;;5055988;28;20509;-72
2021/06/30 13:38:20;;;;;;;16.23;14.63;;;19.80;99.90;;;;;;5056379;28;20457;-72
2021/06/30 13:40:52;;;;;;;16.73;14.63;;;19.80;99.90;;;;;;5055933;28;20456;-71
2021/06/30 13:43:21;;;;;;;17.23;14.10;;;19.80;99.90;;;;;;5037882;28;20450;-72
2021/06/30 13:45:51;;;;;;;16.63;14.93;;;19.80;99.90;;;;;;5056273;28;20472;-72
2021/06/30 13:48:23;;;;;;;16.77;15.07;;;19.80;99.90;;;;;;5055961;28;20533;-72
2021/06/30 13:50:53;;;;;;;17.30;15.17;;;19.80;99.90;;;;;;5056007;28;20883;-72
2021/06/30 13:53:25;;;;;;;17.87;15.50;;;19.90;99.90;;;;;;5055824;28;20421;-72
2021/06/30 13:55:54;;;;;;;20.53;15.70;;;19.90;99.90;;;;;;5056437;28;20483;-72
2021/06/30 13:58:23;;;;;;;21.97;16.97;;;20.00;99.90;;;;;;5037511;28;20481;-72
2021/06/30 14:00:51;;;;;;;23.33;17.10;;;20.00;99.90;;;;;;5055532;28;20972;-72
2021/06/30 14:03:21;;;;;;;19.10;16.40;;;20.00;99.90;;;;;;5056151;28;20443;-72
2021/06/30 14:05:49;;;;;;;18.53;16.20;;;20.10;99.90;;;;;;5055305;28;20500;-72
2021/06/30 14:08:17;;;;;;;19.05;16.75;;;20.10;99.90;;;;;;5038986;28;20538;-72
2021/06/30 14:10:48;;;;;;;20.37;17.10;;;20.10;99.90;;;;;;5055357;28;20662;-72
2021/06/30 14:13:17;;;;;;;19.43;17.43;;;20.10;99.90;;;;;;5055643;28;20517;-72
2021/06/30 14:15:46;;;;;;;20.23;17.43;;;20.10;99.90;;;;;;5056383;28;20438;-72
2021/06/30 14:18:14;;;;;;;22.37;16.60;;;20.10;99.90;;;;;;5037123;28;20517;-72
2021/06/30 14:20:44;;;;;;;19.48;17.35;;;20.10;99.90;;;;;;5054821;28;21031;-72
2021/06/30 14:23:14;;;;;;;18.23;16.33;;;20.10;99.90;;;;;;5037428;28;20580;-72
2021/06/30 14:25:43;;;;;;;16.43;14.73;;;20.10;99.90;;;;;;5054989;28;20819;-72
2021/06/30 14:28:13;;;;;;;19.43;16.03;;;20.10;99.90;;;;;;5037900;28;20540;-72
2021/06/30 14:30:48;;;;;;;18.90;16.70;;;20.10;99.90;;;;;;5054739;28;20476;-72
2021/06/30 14:33:16;;;;;;;18.70;16.37;;;20.10;99.90;;;;;;5055063;28;20512;-72
2021/06/30 14:35:44;;;;;;;17.97;16.07;;;20.00;99.90;;;;;;5037656;28;20486;-72
2021/06/30 14:38:12;;;;;;;17.00;15.20;;;20.00;99.90;;;;;;5037017;28;20557;-72
2021/06/30 14:40:41;;;;;;;16.27;14.60;;;19.90;99.90;;;;;;5055329;28;20545;-72
2021/06/30 14:43:09;;;;;;;16.23;14.53;;;19.90;99.90;;;;;;5036716;28;20456;-72
2021/06/30 14:45:39;;;;;;;18.27;15.43;;;19.80;99.90;;;;;;5050403;28;20457;-72
2021/06/30 14:48:07;;;;;;;16.40;14.43;;;19.80;99.90;;;;;;5021152;28;20546;-72
2021/06/30 14:50:37;;;;;;;16.40;14.70;;;19.80;99.90;;;;;;5019619;28;20564;-72
2021/06/30 14:53:06;;;;;;;15.27;13.37;;;19.70;99.90;;;;;;5049171;28;20473;-72
2021/06/30 14:55:35;;;;;;;16.57;14.67;;;19.70;99.90;;;;;;5033645;28;20438;-72
2021/06/30 14:58:07;;;;;;;14.80;13.17;;;19.80;99.90;;;;;;5016686;28;20446;-72
2021/06/30 15:00:36;;;;;;;15.50;12.30;;;19.80;99.90;;;;;;5034304;28;21017;-72
2021/06/30 15:03:06;;;;;;;13.90;12.43;;;19.70;99.90;;;;;;5015534;28;20472;-72
2021/06/30 15:05:35;;;;;;;14.50;13.00;;;19.70;99.90;;;;;;5040364;28;20454;-72
2021/06/30 15:08:03;;;;;;;14.50;13.10;;;19.60;99.90;;;;;;5052678;28;20464;-72
2021/06/30 15:10:32;;;;;;;13.00;11.80;;;19.60;99.90;;;;;;5034344;28;20599;-72
2021/06/30 15:13:00;;;;;;;13.90;12.50;;;19.50;99.90;;;;;;5034203;28;20434;-72